createdAt,value
2018-03-29T00:00:02.482Z,1.609344
2018-03-29T00:00:14.681Z,9.656064
2018-03-29T00:00:26.820Z,8.04672
2018-03-29T00:00:38.980Z,3.218688
2018-03-29T00:00:51.129Z,6.437376
2018-03-29T00:01:03.314Z,4.828032
2018-03-29T00:01:15.464Z,1.609344
2018-03-29T00:01:27.598Z,8.04672
2018-03-29T00:01:39.774Z,4.828032
2018-03-29T00:01:51.943Z,3.218688
2018-03-29T00:02:04.094Z,3.218688
2018-03-29T00:02:16.278Z,3.218688
2018-03-29T00:02:28.436Z,3.218688
2018-03-29T00:02:40.591Z,3.218688
2018-03-29T00:02:52.779Z,11.265408
2018-03-29T00:03:04.911Z,8.04672
2018-03-29T00:03:17.084Z,6.437376
2018-03-29T00:03:29.273Z,11.265408
2018-03-29T00:03:41.695Z,11.265408
2018-03-29T00:03:53.831Z,9.656064
2018-03-29T00:04:05.978Z,8.04672
2018-03-29T00:04:18.128Z,1.609344
2018-03-29T00:04:30.285Z,6.437376
2018-03-29T00:04:42.484Z,8.04672
2018-03-29T00:04:54.634Z,6.437376
2018-03-29T00:05:06.827Z,3.218688
2018-03-29T00:05:18.954Z,4.828032
2018-03-29T00:05:31.134Z,3.218688
2018-03-29T00:05:43.279Z,6.437376
2018-03-29T00:05:55.493Z,8.04672
2018-03-29T00:06:07.697Z,6.437376
2018-03-29T00:06:19.849Z,3.218688
2018-03-29T00:06:32.010Z,4.828032
2018-03-29T00:06:44.195Z,6.437376
2018-03-29T00:06:56.351Z,8.04672
2018-03-29T00:07:08.510Z,6.437376
2018-03-29T00:07:20.690Z,3.218688
2018-03-29T00:07:32.856Z,3.218688
2018-03-29T00:07:45.015Z,1.609344
2018-03-29T00:07:57.176Z,1.609344
2018-03-29T00:08:09.322Z,1.609344
2018-03-29T00:08:21.460Z,6.437376
2018-03-29T00:08:33.620Z,6.437376
2018-03-29T00:08:45.820Z,8.04672
2018-03-29T00:08:58.050Z,6.437376
2018-03-29T00:09:10.240Z,1.609344
2018-03-29T00:09:22.391Z,6.437376
2018-03-29T00:09:34.568Z,8.04672
2018-03-29T00:09:46.732Z,6.437376
2018-03-29T00:09:58.911Z,11.265408
2018-03-29T00:10:11.100Z,9.656064
2018-03-29T00:10:23.310Z,6.437376
2018-03-29T00:10:35.461Z,6.437376
2018-03-29T00:10:47.621Z,4.828032
2018-03-29T00:10:59.790Z,3.218688
2018-03-29T00:11:11.982Z,3.218688
2018-03-29T00:11:24.128Z,1.609344
2018-03-29T00:11:36.355Z,3.218688
2018-03-29T00:11:48.521Z,4.828032
2018-03-29T00:12:00.688Z,1.609344
2018-03-29T00:12:12.861Z,3.218688
2018-03-29T00:12:25.000Z,3.218688
2018-03-29T00:12:37.140Z,1.609344
2018-03-29T00:12:49.308Z,1.609344
2018-03-29T00:13:01.559Z,3.218688
2018-03-29T00:13:13.768Z,3.218688
2018-03-29T00:13:25.945Z,1.609344
2018-03-29T00:13:38.123Z,3.218688
2018-03-29T00:13:50.271Z,6.437376
2018-03-29T00:14:02.416Z,3.218688
2018-03-29T00:14:14.575Z,3.218688
2018-03-29T00:14:26.731Z,3.218688
2018-03-29T00:14:38.896Z,3.218688
2018-03-29T00:14:51.051Z,3.218688
2018-03-29T00:15:03.203Z,6.437376
2018-03-29T00:15:15.387Z,8.04672
2018-03-29T00:15:27.552Z,8.04672
2018-03-29T00:15:39.696Z,3.218688
2018-03-29T00:15:51.844Z,6.437376
2018-03-29T00:16:03.993Z,6.437376
2018-03-29T00:16:16.150Z,6.437376
2018-03-29T00:16:28.313Z,6.437376
2018-03-29T00:16:40.454Z,9.656064
2018-03-29T00:16:52.612Z,8.04672
2018-03-29T00:17:04.775Z,9.656064
2018-03-29T00:17:16.937Z,8.04672
2018-03-29T00:17:29.084Z,8.04672
2018-03-29T00:17:41.382Z,9.656064
2018-03-29T00:17:53.832Z,8.04672
2018-03-29T00:18:06.151Z,6.437376
2018-03-29T00:18:18.327Z,6.437376
2018-03-29T00:18:30.488Z,6.437376
2018-03-29T00:18:42.648Z,4.828032
2018-03-29T00:18:54.810Z,4.828032
2018-03-29T00:19:07.040Z,8.04672
2018-03-29T00:19:19.193Z,8.04672
2018-03-29T00:19:31.361Z,4.828032
2018-03-29T00:19:43.496Z,3.218688
2018-03-29T00:19:55.652Z,3.218688
2018-03-29T00:20:07.865Z,4.828032
2018-03-29T00:20:20.028Z,1.609344
2018-03-29T00:20:32.210Z,6.437376
2018-03-29T00:20:44.352Z,6.437376
2018-03-29T00:20:56.519Z,8.04672
2018-03-29T00:21:08.743Z,6.437376
2018-03-29T00:21:20.913Z,9.656064
2018-03-29T00:21:33.048Z,8.04672
2018-03-29T00:21:45.193Z,1.609344
2018-03-29T00:21:57.425Z,6.437376
2018-03-29T00:22:09.599Z,9.656064
2018-03-29T00:22:21.756Z,6.437376
2018-03-29T00:22:33.926Z,9.656064
2018-03-29T00:22:46.127Z,6.437376
2018-03-29T00:22:58.330Z,6.437376
2018-03-29T00:23:10.480Z,1.609344
2018-03-29T00:23:22.632Z,1.609344
2018-03-29T00:23:34.787Z,6.437376
2018-03-29T00:23:46.927Z,4.828032
2018-03-29T00:23:59.110Z,4.828032
2018-03-29T00:24:11.300Z,8.04672
2018-03-29T00:24:23.452Z,3.218688
2018-03-29T00:24:35.638Z,6.437376
2018-03-29T00:24:47.837Z,3.218688
2018-03-29T00:24:59.986Z,3.218688
2018-03-29T00:25:12.122Z,3.218688
2018-03-29T00:25:24.678Z,6.437376
2018-03-29T00:25:36.909Z,8.04672
2018-03-29T00:25:49.048Z,3.218688
2018-03-29T00:26:01.177Z,9.656064
2018-03-29T00:26:13.333Z,9.656064
2018-03-29T00:26:25.476Z,8.04672
2018-03-29T00:26:37.773Z,6.437376
2018-03-29T00:26:49.926Z,8.04672
2018-03-29T00:27:02.071Z,6.437376
2018-03-29T00:27:14.216Z,1.609344
2018-03-29T00:27:26.445Z,1.609344
2018-03-29T00:27:38.600Z,1.609344
2018-03-29T00:27:50.773Z,1.609344
2018-03-29T00:28:02.950Z,1.609344
2018-03-29T00:28:15.166Z,1.609344
2018-03-29T00:28:27.330Z,0
2018-03-29T00:28:39.482Z,1.609344
2018-03-29T00:28:51.662Z,1.609344
2018-03-29T00:29:03.832Z,8.04672
2018-03-29T00:29:16.026Z,8.04672
2018-03-29T00:29:28.186Z,8.04672
2018-03-29T00:29:40.350Z,6.437376
2018-03-29T00:29:52.523Z,1.609344
2018-03-29T00:30:04.668Z,1.609344
2018-03-29T00:30:16.826Z,1.609344
2018-03-29T00:30:29.044Z,1.609344
2018-03-29T00:30:41.220Z,1.609344
2018-03-29T00:30:53.372Z,1.609344
2018-03-29T00:31:05.619Z,1.609344
2018-03-29T00:31:17.783Z,3.218688
2018-03-29T00:31:29.923Z,8.04672
2018-03-29T00:31:42.179Z,3.218688
2018-03-29T00:31:54.369Z,3.218688
2018-03-29T00:32:06.565Z,4.828032
2018-03-29T00:32:18.713Z,6.437376
2018-03-29T00:32:30.852Z,3.218688
2018-03-29T00:32:43.046Z,3.218688
2018-03-29T00:32:55.205Z,6.437376
2018-03-29T00:33:07.372Z,8.04672
2018-03-29T00:33:19.527Z,3.218688
2018-03-29T00:33:31.680Z,6.437376
2018-03-29T00:33:43.816Z,6.437376
2018-03-29T00:33:55.973Z,8.04672
2018-03-29T00:34:08.258Z,6.437376
2018-03-29T00:34:20.397Z,3.218688
2018-03-29T00:34:32.554Z,1.609344
2018-03-29T00:34:44.680Z,6.437376
2018-03-29T00:34:56.843Z,1.609344
2018-03-29T00:35:09.077Z,1.609344
2018-03-29T00:35:21.223Z,1.609344
2018-03-29T00:35:33.366Z,6.437376
2018-03-29T00:35:45.519Z,3.218688
2018-03-29T00:35:57.674Z,6.437376
2018-03-29T00:36:09.836Z,1.609344
2018-03-29T00:36:21.998Z,3.218688
2018-03-29T00:36:34.136Z,8.04672
2018-03-29T00:36:46.313Z,3.218688
2018-03-29T00:36:58.445Z,3.218688
2018-03-29T00:37:10.600Z,4.828032
2018-03-29T00:37:22.772Z,3.218688
2018-03-29T00:37:34.927Z,3.218688
2018-03-29T00:37:47.088Z,3.218688
2018-03-29T00:37:59.253Z,1.609344
2018-03-29T00:38:11.398Z,1.609344
2018-03-29T00:38:23.568Z,0
2018-03-29T00:38:35.743Z,8.04672
2018-03-29T00:38:47.877Z,6.437376
2018-03-29T00:39:00.051Z,6.437376
2018-03-29T00:39:12.262Z,11.265408
2018-03-29T00:39:24.401Z,11.265408
2018-03-29T00:39:36.586Z,6.437376
2018-03-29T00:39:48.733Z,12.874752
2018-03-29T00:40:00.889Z,9.656064
2018-03-29T00:40:13.049Z,12.874752
2018-03-29T00:40:25.190Z,11.265408
2018-03-29T00:40:37.367Z,9.656064
2018-03-29T00:40:49.537Z,11.265408
2018-03-29T00:41:01.677Z,12.874752
2018-03-29T00:41:13.810Z,11.265408
2018-03-29T00:41:25.975Z,8.04672
2018-03-29T00:41:38.148Z,9.656064
2018-03-29T00:41:50.291Z,6.437376
2018-03-29T00:42:02.454Z,1.609344
2018-03-29T00:42:14.583Z,1.609344
2018-03-29T00:42:26.759Z,3.218688
2018-03-29T00:42:38.951Z,3.218688
2018-03-29T00:42:51.106Z,8.04672
2018-03-29T00:43:03.250Z,8.04672
2018-03-29T00:43:15.402Z,8.04672
2018-03-29T00:43:27.538Z,3.218688
2018-03-29T00:43:39.695Z,1.609344
2018-03-29T00:43:51.852Z,1.609344
2018-03-29T00:44:04.171Z,9.656064
2018-03-29T00:44:16.315Z,8.04672
2018-03-29T00:44:28.500Z,8.04672
2018-03-29T00:44:40.649Z,6.437376
2018-03-29T00:44:52.798Z,3.218688
2018-03-29T00:45:04.959Z,6.437376
2018-03-29T00:45:17.083Z,3.218688
2018-03-29T00:45:29.256Z,8.04672
2018-03-29T00:45:41.382Z,6.437376
2018-03-29T00:45:53.519Z,3.218688
2018-03-29T00:46:05.685Z,0
2018-03-29T00:46:17.822Z,1.609344
2018-03-29T00:46:29.962Z,3.218688
2018-03-29T00:46:42.114Z,6.437376
2018-03-29T00:46:54.244Z,8.04672
2018-03-29T00:47:06.484Z,8.04672
2018-03-29T00:47:18.671Z,6.437376
2018-03-29T00:47:30.982Z,3.218688
2018-03-29T00:47:43.131Z,3.218688
2018-03-29T00:47:55.441Z,8.04672
2018-03-29T00:48:07.626Z,4.828032
2018-03-29T00:48:19.795Z,1.609344
2018-03-29T00:48:31.937Z,6.437376
2018-03-29T00:48:44.107Z,4.828032
2018-03-29T00:48:56.448Z,6.437376
2018-03-29T00:49:08.587Z,6.437376
2018-03-29T00:49:20.760Z,3.218688
2018-03-29T00:49:32.916Z,6.437376
2018-03-29T00:49:45.499Z,3.218688
2018-03-29T00:49:57.647Z,11.265408
2018-03-29T00:50:09.789Z,9.656064
2018-03-29T00:50:21.943Z,8.04672
2018-03-29T00:50:34.074Z,8.04672
2018-03-29T00:50:46.208Z,8.04672
2018-03-29T00:50:58.421Z,6.437376
2018-03-29T00:51:10.584Z,8.04672
2018-03-29T00:51:22.899Z,8.04672
2018-03-29T00:51:35.079Z,8.04672
2018-03-29T00:51:47.218Z,8.04672
2018-03-29T00:51:59.354Z,3.218688
2018-03-29T00:52:11.505Z,6.437376
2018-03-29T00:52:23.668Z,4.828032
2018-03-29T00:52:35.825Z,1.609344
2018-03-29T00:52:48.070Z,1.609344
2018-03-29T00:53:00.234Z,1.609344
2018-03-29T00:53:12.565Z,3.218688
2018-03-29T00:53:24.711Z,3.218688
2018-03-29T00:53:36.860Z,1.609344
2018-03-29T00:53:48.999Z,3.218688
2018-03-29T00:54:01.173Z,1.609344
2018-03-29T00:54:13.304Z,1.609344
2018-03-29T00:54:25.462Z,3.218688
2018-03-29T00:54:37.750Z,6.437376
2018-03-29T00:54:49.908Z,11.265408
2018-03-29T00:55:02.198Z,11.265408
2018-03-29T00:55:14.359Z,3.218688
2018-03-29T00:55:26.516Z,3.218688
2018-03-29T00:55:38.682Z,6.437376
2018-03-29T00:55:50.823Z,4.828032
2018-03-29T00:56:02.987Z,3.218688
2018-03-29T00:56:15.165Z,1.609344
2018-03-29T00:56:27.323Z,1.609344
2018-03-29T00:56:39.503Z,3.218688
2018-03-29T00:56:51.650Z,12.874752
2018-03-29T00:57:03.845Z,11.265408
2018-03-29T00:57:16.098Z,6.437376
2018-03-29T00:57:28.242Z,6.437376
2018-03-29T00:57:40.370Z,6.437376
2018-03-29T00:57:52.550Z,8.04672
2018-03-29T00:58:04.696Z,6.437376
2018-03-29T00:58:16.854Z,8.04672
2018-03-29T00:58:28.997Z,3.218688
2018-03-29T00:58:41.191Z,6.437376
2018-03-29T00:58:53.338Z,3.218688
2018-03-29T00:59:05.488Z,6.437376
2018-03-29T00:59:17.645Z,6.437376
2018-03-29T00:59:29.783Z,9.656064
2018-03-29T00:59:41.933Z,8.04672
2018-03-29T00:59:54.055Z,6.437376
2018-03-29T01:00:06.254Z,3.218688
2018-03-29T01:00:18.654Z,6.437376
2018-03-29T01:00:30.781Z,6.437376
2018-03-29T01:00:42.908Z,3.218688
2018-03-29T01:00:55.071Z,3.218688
2018-03-29T01:01:07.276Z,8.04672
2018-03-29T01:01:19.429Z,12.874752
2018-03-29T01:01:31.651Z,8.04672
2018-03-29T01:01:43.825Z,6.437376
2018-03-29T01:01:56.040Z,8.04672
2018-03-29T01:02:08.221Z,6.437376
2018-03-29T01:02:20.399Z,8.04672
2018-03-29T01:02:32.549Z,8.04672
2018-03-29T01:02:44.721Z,4.828032
2018-03-29T01:02:56.878Z,6.437376
2018-03-29T01:03:09.029Z,4.828032
2018-03-29T01:03:21.227Z,3.218688
2018-03-29T01:03:33.383Z,3.218688
2018-03-29T01:03:45.838Z,3.218688
2018-03-29T01:03:58.048Z,3.218688
2018-03-29T01:04:10.232Z,3.218688
2018-03-29T01:04:22.401Z,8.04672
2018-03-29T01:04:34.590Z,6.437376
2018-03-29T01:04:46.753Z,9.656064
2018-03-29T01:04:58.904Z,9.656064
2018-03-29T01:05:11.082Z,9.656064
2018-03-29T01:05:23.238Z,8.04672
2018-03-29T01:05:35.374Z,11.265408
2018-03-29T01:05:47.519Z,11.265408
2018-03-29T01:05:59.671Z,8.04672
2018-03-29T01:06:11.822Z,11.265408
2018-03-29T01:06:23.980Z,9.656064
2018-03-29T01:06:36.145Z,6.437376
2018-03-29T01:06:48.356Z,6.437376
2018-03-29T01:07:00.518Z,9.656064
2018-03-29T01:07:12.658Z,11.265408
2018-03-29T01:07:24.873Z,9.656064
2018-03-29T01:07:37.023Z,9.656064
2018-03-29T01:07:49.187Z,8.04672
2018-03-29T01:08:01.433Z,11.265408
2018-03-29T01:08:13.602Z,8.04672
2018-03-29T01:08:25.743Z,8.04672
2018-03-29T01:08:37.890Z,6.437376
2018-03-29T01:08:50.045Z,3.218688
2018-03-29T01:09:02.205Z,8.04672
2018-03-29T01:09:14.382Z,6.437376
2018-03-29T01:09:26.592Z,9.656064
2018-03-29T01:09:38.874Z,6.437376
2018-03-29T01:09:51.034Z,3.218688
2018-03-29T01:10:03.173Z,3.218688
2018-03-29T01:10:15.307Z,6.437376
2018-03-29T01:10:27.459Z,9.656064
2018-03-29T01:10:39.619Z,8.04672
2018-03-29T01:10:51.773Z,9.656064
2018-03-29T01:11:03.926Z,8.04672
2018-03-29T01:11:16.108Z,6.437376
2018-03-29T01:11:28.270Z,9.656064
2018-03-29T01:11:40.426Z,9.656064
2018-03-29T01:11:52.562Z,6.437376
2018-03-29T01:12:04.801Z,16.09344
2018-03-29T01:12:17.025Z,11.265408
2018-03-29T01:12:29.170Z,12.874752
2018-03-29T01:12:41.319Z,8.04672
2018-03-29T01:12:53.566Z,6.437376
2018-03-29T01:13:05.882Z,8.04672
2018-03-29T01:13:18.041Z,12.874752
2018-03-29T01:13:30.214Z,9.656064
2018-03-29T01:13:42.363Z,8.04672
2018-03-29T01:13:54.517Z,11.265408
2018-03-29T01:14:06.659Z,9.656064
2018-03-29T01:14:18.808Z,9.656064
2018-03-29T01:14:30.972Z,11.265408
2018-03-29T01:14:43.141Z,8.04672
2018-03-29T01:14:55.299Z,6.437376
2018-03-29T01:15:07.427Z,8.04672
2018-03-29T01:15:19.577Z,4.828032
2018-03-29T01:15:31.709Z,6.437376
2018-03-29T01:15:43.844Z,8.04672
2018-03-29T01:15:56.005Z,6.437376
2018-03-29T01:16:08.164Z,11.265408
2018-03-29T01:16:20.321Z,9.656064
2018-03-29T01:16:32.472Z,11.265408
2018-03-29T01:16:44.655Z,6.437376
2018-03-29T01:16:56.800Z,3.218688
2018-03-29T01:17:09.028Z,1.609344
2018-03-29T01:17:21.165Z,3.218688
2018-03-29T01:17:33.330Z,3.218688
2018-03-29T01:17:45.477Z,3.218688
2018-03-29T01:17:57.976Z,1.609344
2018-03-29T01:18:10.171Z,1.609344
2018-03-29T01:18:22.363Z,1.609344
2018-03-29T01:18:34.523Z,1.609344
2018-03-29T01:18:46.669Z,1.609344
2018-03-29T01:18:58.836Z,1.609344
2018-03-29T01:19:11.006Z,3.218688
2018-03-29T01:19:23.140Z,1.609344
2018-03-29T01:19:35.321Z,1.609344
2018-03-29T01:19:47.477Z,1.609344
2018-03-29T01:19:59.672Z,3.218688
2018-03-29T01:20:11.863Z,3.218688
2018-03-29T01:20:24.047Z,8.04672
2018-03-29T01:20:36.426Z,6.437376
2018-03-29T01:20:48.572Z,3.218688
2018-03-29T01:21:00.743Z,6.437376
2018-03-29T01:21:12.904Z,8.04672
2018-03-29T01:21:25.057Z,4.828032
2018-03-29T01:21:37.233Z,4.828032
2018-03-29T01:21:49.402Z,6.437376
2018-03-29T01:22:01.546Z,6.437376
2018-03-29T01:22:13.702Z,6.437376
2018-03-29T01:22:25.872Z,1.609344
2018-03-29T01:22:38.006Z,1.609344
2018-03-29T01:22:50.161Z,1.609344
2018-03-29T01:23:02.368Z,1.609344
2018-03-29T01:23:14.520Z,6.437376
2018-03-29T01:23:26.671Z,3.218688
2018-03-29T01:23:38.839Z,1.609344
2018-03-29T01:23:51.017Z,1.609344
2018-03-29T01:24:03.201Z,6.437376
2018-03-29T01:24:15.364Z,6.437376
2018-03-29T01:24:27.543Z,6.437376
2018-03-29T01:24:39.714Z,1.609344
2018-03-29T01:24:51.893Z,3.218688
2018-03-29T01:25:04.102Z,6.437376
2018-03-29T01:25:16.249Z,4.828032
2018-03-29T01:25:28.409Z,3.218688
2018-03-29T01:25:40.565Z,6.437376
2018-03-29T01:25:52.812Z,4.828032
2018-03-29T01:26:04.969Z,4.828032
2018-03-29T01:26:17.113Z,8.04672
2018-03-29T01:26:29.329Z,3.218688
2018-03-29T01:26:41.658Z,3.218688
2018-03-29T01:26:53.841Z,3.218688
2018-03-29T01:27:06.003Z,6.437376
2018-03-29T01:27:18.191Z,8.04672
2018-03-29T01:27:30.330Z,6.437376
2018-03-29T01:27:42.487Z,6.437376
2018-03-29T01:27:54.637Z,3.218688
2018-03-29T01:28:06.810Z,4.828032
2018-03-29T01:28:18.958Z,6.437376
2018-03-29T01:28:31.105Z,3.218688
2018-03-29T01:28:43.233Z,3.218688
2018-03-29T01:28:55.362Z,6.437376
2018-03-29T01:29:07.533Z,9.656064
2018-03-29T01:29:19.694Z,8.04672
2018-03-29T01:29:31.835Z,9.656064
2018-03-29T01:29:43.983Z,8.04672
2018-03-29T01:29:56.136Z,6.437376
2018-03-29T01:30:08.287Z,8.04672
2018-03-29T01:30:20.433Z,4.828032
2018-03-29T01:30:32.586Z,6.437376
2018-03-29T01:30:44.769Z,8.04672
2018-03-29T01:30:56.939Z,6.437376
2018-03-29T01:31:09.097Z,3.218688
2018-03-29T01:31:21.260Z,3.218688
2018-03-29T01:31:33.514Z,4.828032
2018-03-29T01:31:45.660Z,6.437376
2018-03-29T01:31:57.835Z,11.265408
2018-03-29T01:32:10.125Z,8.04672
2018-03-29T01:32:22.316Z,9.656064
2018-03-29T01:32:34.482Z,9.656064
2018-03-29T01:32:46.638Z,8.04672
2018-03-29T01:32:58.807Z,9.656064
2018-03-29T01:33:10.989Z,11.265408
2018-03-29T01:33:23.149Z,12.874752
2018-03-29T01:33:35.283Z,8.04672
2018-03-29T01:33:47.438Z,8.04672
2018-03-29T01:33:59.596Z,11.265408
2018-03-29T01:34:11.761Z,8.04672
2018-03-29T01:34:23.904Z,6.437376
2018-03-29T01:34:36.056Z,3.218688
2018-03-29T01:34:48.183Z,1.609344
2018-03-29T01:35:00.333Z,8.04672
2018-03-29T01:35:12.504Z,9.656064
2018-03-29T01:35:24.676Z,9.656064
2018-03-29T01:35:36.837Z,9.656064
2018-03-29T01:35:49.000Z,8.04672
2018-03-29T01:36:01.171Z,8.04672
2018-03-29T01:36:13.313Z,9.656064
2018-03-29T01:36:25.506Z,11.265408
2018-03-29T01:36:37.700Z,11.265408
2018-03-29T01:36:49.857Z,14.484096
2018-03-29T01:37:02.050Z,9.656064
2018-03-29T01:37:14.233Z,9.656064
2018-03-29T01:37:26.369Z,9.656064
2018-03-29T01:37:38.521Z,9.656064
2018-03-29T01:37:50.669Z,11.265408
2018-03-29T01:38:02.819Z,9.656064
2018-03-29T01:38:14.981Z,12.874752
2018-03-29T01:38:27.157Z,11.265408
2018-03-29T01:38:39.345Z,12.874752
2018-03-29T01:38:51.498Z,8.04672
2018-03-29T01:39:03.657Z,8.04672
2018-03-29T01:39:15.864Z,9.656064
2018-03-29T01:39:28.143Z,12.874752
2018-03-29T01:39:40.283Z,12.874752
2018-03-29T01:39:52.422Z,8.04672
2018-03-29T01:40:04.586Z,11.265408
2018-03-29T01:40:16.721Z,9.656064
2018-03-29T01:40:28.890Z,9.656064
2018-03-29T01:40:41.038Z,6.437376
2018-03-29T01:40:53.244Z,6.437376
2018-03-29T01:41:05.401Z,3.218688
2018-03-29T01:41:17.611Z,8.04672
2018-03-29T01:41:29.758Z,8.04672
2018-03-29T01:41:41.909Z,6.437376
2018-03-29T01:41:54.069Z,11.265408
2018-03-29T01:42:06.299Z,11.265408
2018-03-29T01:42:18.484Z,8.04672
2018-03-29T01:42:30.637Z,6.437376
2018-03-29T01:42:42.771Z,6.437376
2018-03-29T01:42:54.921Z,9.656064
2018-03-29T01:43:07.087Z,9.656064
2018-03-29T01:43:19.230Z,8.04672
2018-03-29T01:43:31.422Z,6.437376
2018-03-29T01:43:43.561Z,6.437376
2018-03-29T01:43:55.711Z,6.437376
2018-03-29T01:44:07.853Z,6.437376
2018-03-29T01:44:19.979Z,6.437376
2018-03-29T01:44:32.142Z,8.04672
2018-03-29T01:44:44.316Z,8.04672
2018-03-29T01:44:56.487Z,8.04672
2018-03-29T01:45:08.684Z,8.04672
2018-03-29T01:45:20.818Z,9.656064
2018-03-29T01:45:32.991Z,6.437376
2018-03-29T01:45:45.140Z,8.04672
2018-03-29T01:45:57.288Z,8.04672
2018-03-29T01:46:09.459Z,6.437376
2018-03-29T01:46:21.594Z,8.04672
2018-03-29T01:46:33.764Z,6.437376
2018-03-29T01:46:45.936Z,4.828032
2018-03-29T01:46:58.089Z,3.218688
2018-03-29T01:47:10.274Z,4.828032
2018-03-29T01:47:22.444Z,1.609344
2018-03-29T01:47:34.574Z,8.04672
2018-03-29T01:47:46.724Z,9.656064
2018-03-29T01:47:59.056Z,8.04672
2018-03-29T01:48:11.189Z,8.04672
2018-03-29T01:48:23.344Z,6.437376
2018-03-29T01:48:35.486Z,4.828032
2018-03-29T01:48:47.613Z,1.609344
2018-03-29T01:48:59.907Z,3.218688
2018-03-29T01:49:12.069Z,3.218688
2018-03-29T01:49:24.225Z,1.609344
2018-03-29T01:49:36.372Z,3.218688
2018-03-29T01:49:48.504Z,6.437376
2018-03-29T01:50:00.744Z,6.437376
2018-03-29T01:50:12.911Z,4.828032
2018-03-29T01:50:25.072Z,3.218688
2018-03-29T01:50:37.296Z,4.828032
2018-03-29T01:50:49.451Z,6.437376
2018-03-29T01:51:01.594Z,6.437376
2018-03-29T01:51:13.754Z,6.437376
2018-03-29T01:51:25.957Z,6.437376
2018-03-29T01:51:38.191Z,6.437376
2018-03-29T01:51:50.326Z,8.04672
2018-03-29T01:52:02.549Z,8.04672
2018-03-29T01:52:14.697Z,6.437376
2018-03-29T01:52:26.849Z,6.437376
2018-03-29T01:52:39.001Z,6.437376
2018-03-29T01:52:51.149Z,8.04672
2018-03-29T01:53:03.294Z,6.437376
2018-03-29T01:53:15.634Z,8.04672
2018-03-29T01:53:27.795Z,9.656064
2018-03-29T01:53:39.958Z,8.04672
2018-03-29T01:53:52.121Z,6.437376
2018-03-29T01:54:04.275Z,6.437376
2018-03-29T01:54:16.427Z,8.04672
2018-03-29T01:54:28.554Z,11.265408
2018-03-29T01:54:40.709Z,9.656064
2018-03-29T01:54:53.083Z,8.04672
2018-03-29T01:55:05.391Z,9.656064
2018-03-29T01:55:17.538Z,9.656064
2018-03-29T01:55:29.686Z,8.04672
2018-03-29T01:55:41.896Z,6.437376
2018-03-29T01:55:54.060Z,8.04672
2018-03-29T01:56:06.199Z,9.656064
2018-03-29T01:56:18.357Z,8.04672
2018-03-29T01:56:30.513Z,9.656064
2018-03-29T01:56:42.653Z,9.656064
2018-03-29T01:56:54.801Z,9.656064
2018-03-29T01:57:06.973Z,9.656064
2018-03-29T01:57:19.132Z,4.828032
2018-03-29T01:57:31.311Z,6.437376
2018-03-29T01:57:43.505Z,4.828032
2018-03-29T01:57:55.661Z,6.437376
2018-03-29T01:58:07.822Z,8.04672
2018-03-29T01:58:20.011Z,11.265408
2018-03-29T01:58:32.163Z,8.04672
2018-03-29T01:58:44.316Z,11.265408
2018-03-29T01:58:56.464Z,11.265408
2018-03-29T01:59:08.610Z,14.484096
2018-03-29T01:59:20.789Z,9.656064
2018-03-29T01:59:32.962Z,8.04672
2018-03-29T01:59:45.124Z,11.265408
2018-03-29T01:59:57.315Z,9.656064
2018-03-29T02:00:09.491Z,6.437376
2018-03-29T02:00:21.698Z,8.04672
2018-03-29T02:00:33.853Z,6.437376
2018-03-29T02:00:46.011Z,12.874752
2018-03-29T02:00:58.283Z,8.04672
2018-03-29T02:01:10.625Z,9.656064
2018-03-29T02:01:22.799Z,9.656064
2018-03-29T02:01:34.974Z,12.874752
2018-03-29T02:01:47.131Z,11.265408
2018-03-29T02:01:59.271Z,8.04672
2018-03-29T02:02:11.431Z,8.04672
2018-03-29T02:02:23.604Z,9.656064
2018-03-29T02:02:35.782Z,8.04672
2018-03-29T02:02:47.927Z,11.265408
2018-03-29T02:03:00.081Z,9.656064
2018-03-29T02:03:12.235Z,6.437376
2018-03-29T02:03:24.384Z,6.437376
2018-03-29T02:03:36.536Z,8.04672
2018-03-29T02:03:48.885Z,4.828032
2018-03-29T02:04:01.070Z,6.437376
2018-03-29T02:04:13.214Z,9.656064
2018-03-29T02:04:25.413Z,9.656064
2018-03-29T02:04:37.632Z,8.04672
2018-03-29T02:04:49.800Z,6.437376
2018-03-29T02:05:01.957Z,9.656064
2018-03-29T02:05:14.111Z,8.04672
2018-03-29T02:05:26.255Z,9.656064
2018-03-29T02:05:38.449Z,9.656064
2018-03-29T02:05:50.593Z,8.04672
2018-03-29T02:06:02.814Z,9.656064
2018-03-29T02:06:14.971Z,9.656064
2018-03-29T02:06:27.130Z,8.04672
2018-03-29T02:06:39.277Z,8.04672
2018-03-29T02:06:51.430Z,6.437376
2018-03-29T02:07:03.618Z,8.04672
2018-03-29T02:07:15.839Z,6.437376
2018-03-29T02:07:27.993Z,6.437376
2018-03-29T02:07:40.147Z,8.04672
2018-03-29T02:07:52.640Z,9.656064
2018-03-29T02:08:04.839Z,9.656064
2018-03-29T02:08:16.991Z,8.04672
2018-03-29T02:08:29.127Z,6.437376
2018-03-29T02:08:41.270Z,6.437376
2018-03-29T02:08:53.477Z,3.218688
2018-03-29T02:09:05.630Z,6.437376
2018-03-29T02:09:17.784Z,11.265408
2018-03-29T02:09:29.994Z,6.437376
2018-03-29T02:09:42.173Z,6.437376
2018-03-29T02:09:54.330Z,3.218688
2018-03-29T02:10:06.505Z,8.04672
2018-03-29T02:10:18.693Z,6.437376
2018-03-29T02:10:30.848Z,6.437376
2018-03-29T02:10:43.009Z,6.437376
2018-03-29T02:10:55.160Z,6.437376
2018-03-29T02:11:07.320Z,4.828032
2018-03-29T02:11:19.468Z,6.437376
2018-03-29T02:11:31.638Z,8.04672
2018-03-29T02:11:43.823Z,4.828032
2018-03-29T02:11:55.982Z,8.04672
2018-03-29T02:12:08.139Z,8.04672
2018-03-29T02:12:20.285Z,6.437376
2018-03-29T02:12:32.435Z,9.656064
2018-03-29T02:12:44.582Z,8.04672
2018-03-29T02:12:56.927Z,11.265408
2018-03-29T02:13:09.084Z,8.04672
2018-03-29T02:13:21.226Z,9.656064
2018-03-29T02:13:33.363Z,9.656064
2018-03-29T02:13:45.531Z,9.656064
2018-03-29T02:13:57.702Z,8.04672
2018-03-29T02:14:09.858Z,11.265408
2018-03-29T02:14:22.013Z,8.04672
2018-03-29T02:14:34.177Z,9.656064
2018-03-29T02:14:46.343Z,11.265408
2018-03-29T02:14:58.485Z,9.656064
2018-03-29T02:15:10.649Z,9.656064
2018-03-29T02:15:22.826Z,12.874752
2018-03-29T02:15:34.960Z,6.437376
2018-03-29T02:15:47.103Z,8.04672
2018-03-29T02:15:59.231Z,8.04672
2018-03-29T02:16:11.395Z,11.265408
2018-03-29T02:16:23.557Z,9.656064
2018-03-29T02:16:35.708Z,6.437376
2018-03-29T02:16:47.892Z,3.218688
2018-03-29T02:17:00.055Z,1.609344
2018-03-29T02:17:12.201Z,6.437376
2018-03-29T02:17:24.413Z,9.656064
2018-03-29T02:17:36.592Z,6.437376
2018-03-29T02:17:48.837Z,9.656064
2018-03-29T02:18:01.360Z,9.656064
2018-03-29T02:18:13.513Z,8.04672
2018-03-29T02:18:25.737Z,9.656064
2018-03-29T02:18:37.904Z,4.828032
2018-03-29T02:18:50.047Z,6.437376
2018-03-29T02:19:02.196Z,6.437376
2018-03-29T02:19:14.349Z,6.437376
2018-03-29T02:19:26.483Z,3.218688
2018-03-29T02:19:38.635Z,6.437376
2018-03-29T02:19:50.812Z,6.437376
2018-03-29T02:20:02.952Z,6.437376
2018-03-29T02:20:15.104Z,4.828032
2018-03-29T02:20:27.287Z,6.437376
2018-03-29T02:20:39.423Z,8.04672
2018-03-29T02:20:51.605Z,6.437376
2018-03-29T02:21:03.759Z,3.218688
2018-03-29T02:21:15.935Z,8.04672
2018-03-29T02:21:28.071Z,8.04672
2018-03-29T02:21:40.205Z,9.656064
2018-03-29T02:21:52.363Z,6.437376
2018-03-29T02:22:04.493Z,8.04672
2018-03-29T02:22:16.698Z,9.656064
2018-03-29T02:22:28.850Z,6.437376
2018-03-29T02:22:41.058Z,3.218688
2018-03-29T02:22:53.338Z,1.609344
2018-03-29T02:23:05.577Z,3.218688
2018-03-29T02:23:17.748Z,1.609344
2018-03-29T02:23:29.916Z,1.609344